Huvudsida
METAR-TAF:

METAR-TAF

Flygplatser :

Foggia, Italien

latitud: 41-32N, longitud: 015-43E, höjd: 57 m

Aktuellt väderrapport

Denna rapport gjordes för 50 minuter sedan, klockan 11:55 UTC
Vind 6 kt från ost
Temperatur 12°C
Fuktighet 40%
Tryck 1031 hPa
Sikt 10 km eller mer
Få moln på en höjd av 3000 ft

METAR: LIBA 221155Z 10006KT 9999 FEW030 12/M01 Q1031 RMK FEW VIS MIN 9999 WIND THR11 09005KT WIND THR29 /////KT BLU

Tid: 13:45 (12:45 UTC)

Väderprognos

Denna rapport gjordes för 1 timme och 45 minuter sedan, klockan 11:00 UTC
Prognos gäller från 22 kl. 12 UTC till 22 kl. 21 UTC
Vind 8 kt från väst/nordväst
Sikt 10 km eller mer
Få moln på en höjd av 3000 ft
Temporärt
från 11 kl. 12 UTC till 11 kl. 15 UTC
Vind 8 kt från ost

TAF: LIBA 221100Z 2212/2221 30008KT 9999 FEW030 TEMPO 1112/1115 10008KT

Aktuella väderrapporter och prognoser från 4000 flygplatser (METAR- och TAF-rapporter).

De tillgängliga stationerna syns som gula och röda prickar på kartan.

För musen över prickarna för att se namnen på stationerna.

Klicka sedan för att få väderrapporter och prognoser.

För att ändra kartan: Klicka på de gröna knapparna med ett svart kors på för att zooma in; den gröna knappen med ett streck på för att zooma ut; eller på de gröna pilarna för angränsande kartor.


METAR-TAF: